METAR Data
IDs: Format: Raw Decoded Include TAF

Data at: 0205 UTC 01 Mar 2021

KUCY 010155Z AUTO 00000KT 8SM SCT033 BKN040 OVC070 15/15 A2987 RMK A01 P0022